»·PEaware :: WAT563 KSNA-KSMF

WAT563 :: KSNA-KSMF

FLIGHT INFORMATION

Flight Status: Arrived
Operator:
Walker Air Transport
More flights by this operator :: More flights under this callsign
Pilot: Trevel L P. (20826)
Aircraft: BOEING 757-200
(B752)
More flights by this aircraft type
Origin: KSNA John Wayne-Orange Co
United States
Destination: KSMF Sacramento Intl
United States
More flights between these airports :: More routes between these airports
Route: HHERO3 EHF NURAY SUUTR3
File this flight plan on PilotEdge
Remarks: RMK / SIMBRIEF
Altitude:
(Current/Filed)
36,000ft
Speed:
(Current/Filed)
462kts
Departed: 19-Feb-21 04:48 PM
Arrived: 19-Feb-21 06:02 PM
Distance/Time
Traveled:
351nm/1:14
Distance/Time
To Go:
Arrived

Flight Plot

Page will automatically refresh every two minutes.

Flight plan parsing failed; only flown route is shown


Map Options




Map Legend


Flown Route
Filed Route
Departure Airport
Arrival Airport
Navaid (VOR, NDB)
Fix

Horizontal Profiles

Position Reports

Time Latitude Longitude Heading Altitude Ground
Speed
19-Feb-21 16:24 33.677179 -117.863705 118 68ft 0kts
19-Feb-21 16:25 33.677179 -117.863705 118 68ft 0kts
19-Feb-21 16:26 33.677179 -117.863705 118 68ft 0kts
19-Feb-21 16:27 33.677179 -117.863705 118 67ft 0kts
19-Feb-21 16:28 33.677179 -117.863705 118 67ft 0kts
19-Feb-21 16:29 33.677179 -117.863705 118 67ft 0kts
19-Feb-21 16:30 33.677179 -117.863705 118 67ft 0kts
19-Feb-21 16:31 33.677179 -117.863705 118 67ft 0kts
19-Feb-21 16:32 33.677179 -117.863705 118 67ft 0kts
19-Feb-21 16:33 33.677179 -117.863705 118 67ft 0kts
19-Feb-21 16:34 33.677179 -117.863705 118 67ft 0kts
19-Feb-21 16:35 33.677179 -117.863705 118 67ft 0kts
19-Feb-21 16:36 33.677179 -117.863705 118 67ft 0kts
19-Feb-21 16:37 33.677370 -117.864219 82 67ft 2kts
19-Feb-21 16:38 33.677170 -117.864528 26 67ft 0kts
19-Feb-21 16:39 33.677170 -117.864528 26 67ft 0kts
19-Feb-21 16:40 33.678128 -117.864001 22 67ft 0kts
19-Feb-21 16:41 33.678127 -117.864001 22 67ft 0kts
19-Feb-21 16:42 33.678127 -117.864001 22 67ft 0kts
19-Feb-21 16:43 33.679081 -117.863352 29 67ft 19kts
19-Feb-21 16:44 33.680988 -117.863817 297 67ft 3kts
19-Feb-21 16:45 33.681143 -117.864175 297 67ft 0kts
19-Feb-21 16:46 33.680919 -117.865516 207 67ft 5kts
19-Feb-21 16:47 33.657861 -117.880226 208 678ft 169kts
19-Feb-21 16:48 33.604566 -117.891438 190 1847ft 234kts
19-Feb-21 16:49 33.546312 -117.927994 223 3962ft 252kts
19-Feb-21 16:50 33.494106 -117.986707 224 6272ft 265kts
19-Feb-21 16:51 33.451245 -118.061932 242 8490ft 278kts
19-Feb-21 16:52 33.413770 -118.142976 259 10701ft 288kts
19-Feb-21 16:53 33.429032 -118.248744 283 11941ft 352kts
19-Feb-21 16:54 33.464108 -118.356238 295 14548ft 357kts
19-Feb-21 16:55 33.516892 -118.458673 313 17716ft 377kts
19-Feb-21 16:56 33.618076 -118.505908 353 21392ft 428kts
19-Feb-21 16:57 33.738175 -118.468959 7 23191ft 457kts
19-Feb-21 16:58 33.860820 -118.466633 353 23439ft 446kts
19-Feb-21 16:59 33.986260 -118.460819 354 24706ft 457kts
19-Feb-21 17:00 34.111353 -118.476682 345 25889ft 457kts
19-Feb-21 17:01 34.238050 -118.496108 345 26990ft 465kts
19-Feb-21 17:02 34.367087 -118.515996 345 28066ft 472kts
19-Feb-21 17:03 34.497974 -118.536264 345 29050ft 480kts
19-Feb-21 17:04 34.631367 -118.556960 345 30112ft 485kts
19-Feb-21 17:05 34.764095 -118.577602 345 31422ft 482kts
19-Feb-21 17:06 34.896461 -118.598270 345 32811ft 477kts
19-Feb-21 17:07 35.021328 -118.635585 322 34089ft 449kts
19-Feb-21 17:08 35.118685 -118.725331 312 35539ft 435kts
19-Feb-21 17:09 35.211531 -118.818547 311 36284ft 432kts
19-Feb-21 17:10 35.303076 -118.911665 311 36273ft 430kts
19-Feb-21 17:11 35.394770 -119.005359 311 36261ft 430kts
19-Feb-21 17:12 35.488317 -119.097087 321 36265ft 440kts
19-Feb-21 17:13 35.601215 -119.159779 327 36263ft 449kts
19-Feb-21 17:14 35.715373 -119.221282 327 36262ft 448kts
19-Feb-21 17:15 35.829077 -119.282654 327 36262ft 448kts
19-Feb-21 17:16 35.942822 -119.344229 327 36266ft 447kts
19-Feb-21 17:17 36.055989 -119.405653 326 36268ft 442kts
19-Feb-21 17:18 36.168421 -119.466932 326 36265ft 444kts
19-Feb-21 17:19 36.281057 -119.528488 326 36264ft 444kts
19-Feb-21 17:20 36.393841 -119.590318 326 36263ft 444kts
19-Feb-21 17:21 36.505983 -119.651991 325 36264ft 443kts
19-Feb-21 17:22 36.617336 -119.715636 317 36279ft 431kts
19-Feb-21 17:23 36.717495 -119.796359 317 36270ft 430kts
19-Feb-21 17:24 36.818169 -119.875774 317 36268ft 429kts
19-Feb-21 17:25 36.918715 -119.955040 317 36269ft 428kts
19-Feb-21 17:26 37.019307 -120.034553 317 35941ft 430kts
19-Feb-21 17:27 37.116970 -120.111981 317 33130ft 417kts
19-Feb-21 17:28 37.214445 -120.189506 317 30571ft 418kts
19-Feb-21 17:29 37.312330 -120.267606 317 28401ft 417kts
19-Feb-21 17:30 37.409137 -120.345077 318 25358ft 405kts
19-Feb-21 17:31 37.496615 -120.418111 310 23718ft 357kts
19-Feb-21 17:32 37.570481 -120.494523 312 21858ft 339kts
19-Feb-21 17:33 37.643517 -120.568059 313 20599ft 335kts
19-Feb-21 17:34 37.715848 -120.640668 314 19579ft 331kts
19-Feb-21 17:35 37.787480 -120.712887 313 18814ft 328kts
19-Feb-21 17:36 37.858110 -120.784322 313 18176ft 323kts
19-Feb-21 17:37 37.927769 -120.854967 314 17589ft 320kts
19-Feb-21 17:38 37.997242 -120.925603 314 17035ft 319kts
19-Feb-21 17:39 38.065903 -120.995583 313 16511ft 316kts
19-Feb-21 17:40 38.123576 -121.076569 305 15328ft 306kts
19-Feb-21 17:41 38.178906 -121.158379 305 14159ft 301kts
19-Feb-21 17:42 38.228810 -121.228779 309 13818ft 264kts
19-Feb-21 17:43 38.279939 -121.293906 309 12545ft 257kts
19-Feb-21 17:44 38.330342 -121.357856 310 11314ft 258kts
19-Feb-21 17:45 38.381253 -121.422525 311 10097ft 259kts
19-Feb-21 17:46 38.432308 -121.487508 312 8897ft 261kts
19-Feb-21 17:47 38.497696 -121.515143 3 7856ft 268kts
19-Feb-21 17:48 38.571479 -121.505150 3 6661ft 266kts
19-Feb-21 17:49 38.643400 -121.496337 3 5597ft 257kts
19-Feb-21 17:50 38.713786 -121.488434 3 4462ft 253kts
19-Feb-21 17:51 38.780675 -121.481267 3 3799ft 224kts
19-Feb-21 17:52 38.842497 -121.475105 3 2536ft 222kts
19-Feb-21 17:53 38.902975 -121.470734 352 1998ft 219kts
19-Feb-21 17:54 38.924736 -121.526986 240 1996ft 189kts
19-Feb-21 17:55 38.885016 -121.565377 213 2001ft 167kts
19-Feb-21 17:56 38.840994 -121.577741 182 2000ft 167kts
19-Feb-21 17:57 38.798265 -121.578485 181 1942ft 131kts
19-Feb-21 17:58 38.763063 -121.579168 180 1172ft 125kts
19-Feb-21 17:59 38.728861 -121.579056 180 467ft 119kts
19-Feb-21 18:00 38.696688 -121.580230 183 28ft 82kts
19-Feb-21 18:01 38.690552 -121.582865 339 28ft 9kts
19-Feb-21 18:02 38.691886 -121.585445 272 29ft 1kts
19-Feb-21 18:03 38.692527 -121.586071 322 30ft 0kts

Navigation Log

Ident Type
Flight plan parsing failed, navigation log unavailable